Time;durP1;ratioP1;P1;durP2;ratioP2;P2;SDS_P1;SDS_P2;PMS_P1;PMS_P2;Temp;Humidity;BMP_temperature;BMP_pressure;BME280_temperature;BME280_humidity;BME280_pressure;Samples;Min_cycle;Max_cycle;Signal;HPM_P1;HPM_P2
2022/01/12 00:02:20;;;;;;;8.73;4.10;;;8.20;99.90;;;;;;5082549;28;20079;-58
2022/01/12 00:04:46;;;;;;;7.20;4.22;;;8.20;99.90;;;;;;5083607;28;20116;-55
2022/01/12 00:07:13;;;;;;;6.03;3.67;;;8.20;99.90;;;;;;5083365;28;20151;-56
2022/01/12 00:09:40;;;;;;;5.90;3.60;;;8.20;99.90;;;;;;5084000;28;20111;-56
2022/01/12 00:12:08;;;;;;;5.75;3.60;;;8.20;99.90;;;;;;5083123;28;20143;-56
2022/01/12 00:14:35;;;;;;;6.57;3.15;;;8.10;99.90;;;;;;5082864;28;20128;-56
2022/01/12 00:17:01;;;;;;;4.80;3.13;;;8.10;99.90;;;;;;5082781;28;20164;-57
2022/01/12 00:19:29;;;;;;;6.18;3.60;;;8.10;99.90;;;;;;5079081;28;20503;-57
2022/01/12 00:21:56;;;;;;;5.65;3.40;;;8.00;99.90;;;;;;5083410;28;20180;-57
2022/01/12 00:24:26;;;;;;;6.80;3.90;;;8.00;99.90;;;;;;5083362;28;20047;-58
2022/01/12 00:35:09;;;;;;;10.05;5.38;;;7.70;99.90;;;;;;5079422;28;20131;-58
2022/01/12 00:37:36;;;;;;;8.25;4.45;;;7.70;99.90;;;;;;5080959;28;20040;-57
2022/01/12 00:40:03;;;;;;;8.13;4.68;;;7.70;99.90;;;;;;5082214;28;20135;-55
2022/01/12 00:42:31;;;;;;;8.45;4.00;;;7.60;99.90;;;;;;5082850;28;20064;-53
2022/01/12 00:45:01;;;;;;;7.32;3.78;;;7.60;99.90;;;;;;5082773;28;20113;-56
2022/01/12 00:47:28;;;;;;;7.45;4.25;;;7.50;99.90;;;;;;5080379;28;20067;-54
2022/01/12 00:49:55;;;;;;;9.95;4.35;;;7.50;99.90;;;;;;5081392;28;20105;-56
2022/01/12 00:52:21;;;;;;;9.38;4.70;;;7.40;99.90;;;;;;5082071;28;20048;-56
2022/01/12 00:54:48;;;;;;;11.73;4.80;;;7.40;99.90;;;;;;5082485;28;20134;-54
2022/01/12 00:57:15;;;;;;;9.13;4.10;;;7.40;99.90;;;;;;5082988;28;20142;-51
2022/01/12 00:59:41;;;;;;;8.60;4.25;;;7.30;99.90;;;;;;5082194;28;20551;-55
2022/01/12 01:02:09;;;;;;;8.30;4.60;;;7.30;99.90;;;;;;5079664;28;20123;-53
2022/01/12 01:04:35;;;;;;;8.88;4.18;;;7.30;99.90;;;;;;5081447;28;20083;-56
2022/01/12 01:07:02;;;;;;;6.47;3.85;;;7.20;99.90;;;;;;5082307;28;20100;-55
2022/01/12 01:09:30;;;;;;;6.65;3.80;;;7.20;99.90;;;;;;5085033;28;20135;-54
2022/01/12 01:11:57;;;;;;;7.07;3.67;;;7.10;99.90;;;;;;5084203;28;20136;-53
2022/01/12 01:14:59;;;;;;;6.72;3.92;;;7.10;99.90;;;;;;5084939;28;20818;-54
2022/01/12 01:28:01;;;;;;;6.45;3.40;;;6.90;99.90;;;;;;5085270;28;20538;-55
2022/01/12 01:30:28;;;;;;;6.65;3.38;;;6.90;99.90;;;;;;5085223;28;20084;-56
2022/01/12 01:32:57;;;;;;;6.60;3.70;;;6.80;99.90;;;;;;5082662;28;20091;-56
2022/01/12 01:35:29;;;;;;;8.43;3.92;;;6.80;99.90;;;;;;5081791;28;20079;-56
2022/01/12 01:37:58;;;;;;;8.75;3.80;;;6.80;99.90;;;;;;5083969;28;20377;-53
2022/01/12 01:40:25;;;;;;;8.23;3.75;;;6.80;99.90;;;;;;5084393;28;20507;-56
2022/01/12 01:53:39;;;;;;;7.78;4.30;;;6.80;99.90;;;;;;5084897;28;20154;-53
2022/01/12 01:56:07;;;;;;;7.32;4.07;;;6.80;99.90;;;;;;5080495;28;20126;-55
2022/01/12 01:58:34;;;;;;;6.95;4.20;;;6.70;99.90;;;;;;5084461;28;20557;-53
2022/01/12 02:01:01;;;;;;;7.05;4.32;;;6.70;99.90;;;;;;5083372;28;20114;-54
2022/01/12 02:03:29;;;;;;;6.95;4.32;;;6.60;99.90;;;;;;5084529;28;20466;-53
2022/01/12 02:05:57;;;;;;;8.57;5.05;;;6.60;99.90;;;;;;5080823;28;20052;-54
2022/01/12 02:08:23;;;;;;;9.77;5.28;;;6.50;99.90;;;;;;5084243;28;20117;-55
2022/01/12 02:10:57;;;;;;;6.28;4.40;;;6.50;99.90;;;;;;5084021;28;20079;-56
2022/01/12 02:13:24;;;;;;;7.88;4.85;;;6.40;99.90;;;;;;5084058;28;20119;-54
2022/01/12 02:15:51;;;;;;;8.68;4.45;;;6.40;99.90;;;;;;5083205;28;20090;-57
2022/01/12 02:40:46;;;;;;;11.27;5.68;;;6.00;99.90;;;;;;5085746;28;20079;-58
2022/01/12 02:43:17;;;;;;;10.57;5.97;;;5.90;99.90;;;;;;5085886;28;20081;-55
2022/01/12 02:50:42;;;;;;;8.77;4.70;;;5.90;99.90;;;;;;5060241;28;20072;-57
2022/01/12 02:51:36;;;;;;;7.47;4.05;;;5.90;99.90;;;;;;5083923;28;20039;-57
2022/01/12 02:54:04;;;;;;;6.35;4.20;;;5.90;99.90;;;;;;5084302;28;20144;-54
2022/01/12 02:56:33;;;;;;;7.68;4.40;;;5.80;99.90;;;;;;5084152;28;20929;-56
2022/01/12 02:59:01;;;;;;;6.05;4.70;;;5.80;99.90;;;;;;5084349;28;20079;-57
2022/01/12 03:04:03;;;;;;;5.93;4.38;;;5.80;99.90;;;;;;5083616;28;20716;-56
2022/01/12 03:06:34;;;;;;;6.20;4.28;;;5.80;99.90;;;;;;5071979;28;20519;-58
2022/01/12 03:09:02;;;;;;;5.97;4.75;;;5.70;99.90;;;;;;5064254;28;20075;-58
2022/01/12 03:11:29;;;;;;;6.85;4.25;;;5.60;99.90;;;;;;5073988;28;20090;-57
2022/01/12 03:13:55;;;;;;;7.97;4.30;;;5.60;99.90;;;;;;5078656;28;20087;-58
2022/01/12 03:16:24;;;;;;;5.97;4.10;;;5.60;99.90;;;;;;5081452;28;20123;-51
2022/01/12 03:18:53;;;;;;;6.45;4.55;;;5.50;99.90;;;;;;5083668;28;20052;-56
2022/01/12 03:21:21;;;;;;;8.25;4.32;;;5.60;99.90;;;;;;5083426;28;20094;-55
2022/01/12 03:23:49;;;;;;;4.47;3.45;;;5.50;99.90;;;;;;5083848;28;20456;-57
2022/01/12 03:26:15;;;;;;;5.68;4.07;;;5.50;99.90;;;;;;5084070;28;20479;-55
2022/01/12 03:28:42;;;;;;;5.25;3.95;;;5.40;99.90;;;;;;5085121;28;20076;-58
2022/01/12 03:31:20;;;;;;;6.30;4.25;;;5.30;99.90;;;;;;5056577;28;20135;-56
2022/01/12 03:38:56;;;;;;;4.93;3.60;;;5.20;99.90;;;;;;5088250;28;20086;-57
2022/01/12 03:41:24;;;;;;;5.13;4.03;;;5.10;99.90;;;;;;5086129;28;20079;-57
2022/01/12 03:43:52;;;;;;;7.18;4.07;;;5.10;99.90;;;;;;5086412;28;20044;-58
2022/01/12 03:46:20;;;;;;;5.10;4.05;;;5.10;99.90;;;;;;5079785;28;20044;-57
2022/01/12 03:48:46;;;;;;;5.63;4.28;;;5.00;99.90;;;;;;5084411;28;20048;-57
2022/01/12 03:51:13;;;;;;;6.05;4.57;;;4.90;99.90;;;;;;5087148;28;20163;-57
2022/01/12 03:53:40;;;;;;;6.63;4.32;;;4.90;99.90;;;;;;5085893;28;20056;-53
2022/01/12 03:56:07;;;;;;;6.85;3.90;;;4.90;99.90;;;;;;5087363;28;20101;-57
2022/01/12 03:58:34;;;;;;;4.88;3.55;;;4.90;99.90;;;;;;5083813;28;20056;-56
2022/01/12 04:01:00;;;;;;;7.45;3.88;;;4.80;99.90;;;;;;5086236;28;20178;-58
2022/01/12 04:03:28;;;;;;;5.40;3.80;;;4.70;99.90;;;;;;5086957;28;20585;-55
2022/01/12 04:08:23;;;;;;;4.53;4.03;;;4.60;99.90;;;;;;5086962;28;20135;-55
2022/01/12 04:10:52;;;;;;;5.25;3.78;;;4.60;99.90;;;;;;5087415;28;20048;-56
2022/01/12 04:13:21;;;;;;;6.97;4.05;;;4.60;99.90;;;;;;5086906;28;20410;-57
2022/01/12 04:15:51;;;;;;;4.50;3.42;;;4.50;99.90;;;;;;5084588;28;20495;-55
2022/01/12 04:18:17;;;;;;;6.50;4.03;;;4.50;99.90;;;;;;5085677;28;20075;-56
2022/01/12 04:20:49;;;;;;;5.03;3.40;;;4.40;99.90;;;;;;5086335;28;20080;-56
2022/01/12 04:23:20;;;;;;;6.18;4.15;;;4.40;99.90;;;;;;5086408;28;20464;-57
2022/01/12 04:25:52;;;;;;;6.90;4.22;;;4.30;99.90;;;;;;5086283;28;20348;-56
2022/01/12 04:28:20;;;;;;;6.80;3.63;;;4.20;99.90;;;;;;5087101;28;20080;-57
2022/01/12 04:30:47;;;;;;;3.97;3.05;;;4.20;99.90;;;;;;5085628;28;20689;-58
2022/01/12 04:33:14;;;;;;;7.93;3.63;;;4.10;99.90;;;;;;5087234;28;20036;-57
2022/01/12 04:35:53;;;;;;;5.95;4.18;;;4.10;99.90;;;;;;5085307;28;20135;-57
2022/01/12 04:38:24;;;;;;;5.38;3.92;;;4.10;99.90;;;;;;5085944;28;20131;-57
2022/01/12 04:40:51;;;;;;;4.88;3.47;;;4.00;99.90;;;;;;5086947;28;20139;-56
2022/01/12 04:43:19;;;;;;;4.25;3.63;;;4.00;99.90;;;;;;5086523;28;20578;-57
2022/01/12 04:48:48;;;;;;;5.05;3.80;;;4.00;99.90;;;;;;5074845;28;20144;-58
2022/01/12 04:51:15;;;;;;;5.22;3.47;;;3.90;99.90;;;;;;5086098;28;20083;-57
2022/01/12 04:53:42;;;;;;;5.68;3.22;;;3.90;99.90;;;;;;5086822;28;20087;-57
2022/01/12 04:56:09;;;;;;;6.05;3.50;;;3.90;99.90;;;;;;5085752;28;20661;-56
2022/01/12 04:58:35;;;;;;;4.07;2.58;;;3.90;99.90;;;;;;5087031;28;20215;-57
2022/01/12 05:01:09;;;;;;;5.45;3.10;;;3.90;99.90;;;;;;5084990;28;20502;-56
2022/01/12 05:09:28;;;;;;;4.25;3.38;;;3.70;99.90;;;;;;5086314;28;20083;-56
2022/01/12 05:14:46;;;;;;;4.25;2.90;;;3.60;99.90;;;;;;5082911;28;20132;-55
2022/01/12 05:17:13;;;;;;;4.32;2.97;;;3.60;99.90;;;;;;5081921;28;20078;-57
2022/01/12 05:19:40;;;;;;;4.88;3.17;;;3.50;99.90;;;;;;5082745;28;20476;-56
2022/01/12 05:22:08;;;;;;;5.53;3.25;;;3.60;99.90;;;;;;5085771;28;20079;-56
2022/01/12 05:24:35;;;;;;;4.82;3.22;;;3.50;99.90;;;;;;5083832;28;20128;-58
2022/01/12 05:27:22;;;;;;;4.70;3.17;;;3.50;99.90;;;;;;5084819;28;20466;-58
2022/01/12 05:29:49;;;;;;;4.32;3.47;;;3.50;99.90;;;;;;5085490;28;20346;-57
2022/01/12 05:32:15;;;;;;;4.97;3.47;;;3.50;99.90;;;;;;5083445;28;20363;-56
2022/01/12 05:34:43;;;;;;;5.07;3.10;;;3.40;99.90;;;;;;5086088;28;20131;-55
2022/01/12 05:37:10;;;;;;;5.53;3.92;;;3.40;99.90;;;;;;5085202;28;20519;-58
2022/01/12 05:39:38;;;;;;;3.97;2.85;;;3.40;99.90;;;;;;5085502;28;20127;-57
2022/01/12 05:42:23;;;;;;;4.30;3.38;;;3.40;99.90;;;;;;5084881;28;20634;-56
2022/01/12 05:44:50;;;;;;;4.85;3.58;;;3.30;99.90;;;;;;5085484;28;20127;-55
2022/01/12 05:47:33;;;;;;;5.25;3.80;;;3.30;99.90;;;;;;5084354;28;20154;-56
2022/01/12 05:50:00;;;;;;;6.10;3.45;;;3.30;99.90;;;;;;5078580;28;20127;-56
2022/01/12 05:52:27;;;;;;;5.20;3.28;;;3.30;99.90;;;;;;5082092;28;20079;-57
2022/01/12 05:54:54;;;;;;;4.68;3.42;;;3.20;99.90;;;;;;5083294;28;20135;-57
2022/01/12 05:57:20;;;;;;;6.22;3.83;;;3.20;99.90;;;;;;5083312;28;20139;-57
2022/01/12 05:59:47;;;;;;;4.35;3.20;;;3.10;99.90;;;;;;5083017;28;20125;-56
2022/01/12 06:02:14;;;;;;;4.70;3.25;;;3.10;99.90;;;;;;5079365;28;20092;-53
2022/01/12 06:04:41;;;;;;;6.75;3.45;;;3.10;99.90;;;;;;5080994;28;20550;-57
2022/01/12 06:07:08;;;;;;;5.38;3.33;;;3.00;99.90;;;;;;5082043;28;20051;-57
2022/01/12 06:09:35;;;;;;;4.13;2.92;;;3.00;99.90;;;;;;5081739;28;20420;-56
2022/01/12 06:12:02;;;;;;;4.88;3.05;;;3.00;99.90;;;;;;5083142;28;20139;-56
2022/01/12 06:14:29;;;;;;;5.18;3.60;;;3.00;99.90;;;;;;5083903;28;20090;-58
2022/01/12 06:16:56;;;;;;;5.25;3.20;;;3.00;99.90;;;;;;5084559;28;20128;-56
2022/01/12 06:19:23;;;;;;;4.60;3.88;;;3.00;99.90;;;;;;5085201;28;20079;-57
2022/01/12 06:21:50;;;;;;;5.38;3.25;;;3.00;99.90;;;;;;5084625;28;20728;-57
2022/01/12 06:24:16;;;;;;;5.32;3.33;;;3.00;99.90;;;;;;5082136;28;20071;-58
2022/01/12 06:26:44;;;;;;;4.80;3.55;;;3.00;99.90;;;;;;5080827;28;20099;-57
2022/01/12 06:31:45;;;;;;;5.68;3.78;;;3.00;99.90;;;;;;5083948;28;20080;-57
2022/01/12 06:34:12;;;;;;;7.28;4.10;;;2.90;99.90;;;;;;5082659;28;20483;-55
2022/01/12 06:36:38;;;;;;;7.13;4.50;;;2.90;99.90;;;;;;5072207;28;20095;-58
2022/01/12 06:39:06;;;;;;;5.15;4.03;;;2.90;99.90;;;;;;5073486;28;20056;-57
2022/01/12 06:41:33;;;;;;;6.20;5.00;;;2.90;99.90;;;;;;5077997;28;21058;-57
2022/01/12 06:44:00;;;;;;;6.88;4.43;;;2.80;99.90;;;;;;5082628;28;20131;-56
2022/01/12 06:46:29;;;;;;;6.78;4.05;;;2.70;99.90;;;;;;5080071;28;20307;-57
2022/01/12 06:48:57;;;;;;;8.13;4.25;;;2.70;99.90;;;;;;5076433;28;20048;-55
2022/01/12 06:51:23;;;;;;;6.95;3.97;;;2.70;99.90;;;;;;5074676;28;20396;-54
2022/01/12 06:53:53;;;;;;;6.30;3.83;;;2.70;99.90;;;;;;5077970;28;20126;-65
2022/01/12 06:56:23;;;;;;;6.10;4.13;;;2.60;99.90;;;;;;5078479;28;20144;-57
2022/01/12 06:58:49;;;;;;;6.05;3.80;;;2.60;99.90;;;;;;5073969;28;20482;-56
2022/01/12 07:01:16;;;;;;;7.07;5.03;;;2.60;99.90;;;;;;5067548;28;20537;-56
2022/01/12 07:03:43;;;;;;;5.38;3.75;;;2.50;99.90;;;;;;5077394;28;20056;-60
2022/01/12 07:06:10;;;;;;;5.45;3.70;;;2.50;99.90;;;;;;5074967;28;20603;-57
2022/01/12 07:08:37;;;;;;;7.30;4.50;;;2.50;99.90;;;;;;5076967;28;20148;-58
2022/01/12 07:11:04;;;;;;;5.40;3.55;;;2.50;99.90;;;;;;5076300;28;21021;-56
2022/01/12 07:13:30;;;;;;;6.20;4.32;;;2.50;99.90;;;;;;5075249;28;20119;-57
2022/01/12 07:15:57;;;;;;;5.30;4.13;;;2.50;99.90;;;;;;5075109;28;20127;-56
2022/01/12 07:18:26;;;;;;;6.47;4.38;;;2.50;99.90;;;;;;5077304;28;20676;-54
2022/01/12 07:20:52;;;;;;;5.68;4.05;;;2.50;99.90;;;;;;5076074;28;20113;-57
2022/01/12 07:23:19;;;;;;;5.68;4.57;;;2.50;99.90;;;;;;5076360;28;20414;-56
2022/01/12 07:25:46;;;;;;;6.45;4.88;;;2.40;99.90;;;;;;5077859;28;20510;-56
2022/01/12 07:28:13;;;;;;;6.18;4.15;;;2.50;99.90;;;;;;5077351;28;20087;-56
2022/01/12 07:30:39;;;;;;;6.93;3.67;;;2.40;99.90;;;;;;5076902;28;20183;-57
2022/01/12 07:33:10;;;;;;;6.13;3.85;;;2.40;99.90;;;;;;5077723;28;20056;-56
2022/01/12 07:35:37;;;;;;;7.15;4.60;;;2.40;99.90;;;;;;5078124;28;20460;-50
2022/01/12 07:38:04;;;;;;;6.18;3.95;;;2.40;99.90;;;;;;5076756;28;20151;-55
2022/01/12 07:40:31;;;;;;;5.95;4.40;;;2.40;99.90;;;;;;5076994;28;20347;-55
2022/01/12 07:42:58;;;;;;;5.05;3.60;;;2.30;99.90;;;;;;5076974;28;20472;-55
2022/01/12 07:45:24;;;;;;;5.78;4.35;;;2.40;99.90;;;;;;5077874;28;20087;-55
2022/01/12 07:47:51;;;;;;;5.20;4.20;;;2.30;99.90;;;;;;5076214;28;20758;-57
2022/01/12 07:50:18;;;;;;;8.00;4.18;;;2.30;99.90;;;;;;5076523;28;20055;-55
2022/01/12 07:52:45;;;;;;;6.72;4.80;;;2.30;99.90;;;;;;5075746;28;20195;-55
2022/01/12 07:55:12;;;;;;;5.65;4.18;;;2.30;99.90;;;;;;5075795;28;20048;-54
2022/01/12 07:57:41;;;;;;;7.03;5.55;;;2.20;99.90;;;;;;5077942;28;20058;-54
2022/01/12 08:00:08;;;;;;;6.97;4.60;;;2.30;99.90;;;;;;5077513;28;20587;-55
2022/01/12 08:02:36;;;;;;;7.68;5.95;;;2.30;99.90;;;;;;5075139;28;20093;-57
2022/01/12 08:05:04;;;;;;;7.43;4.80;;;2.30;99.90;;;;;;5076814;28;20492;-54
2022/01/12 08:07:35;;;;;;;6.57;4.85;;;2.30;99.90;;;;;;5073756;28;20056;-54
2022/01/12 08:10:06;;;;;;;6.80;4.88;;;2.30;99.90;;;;;;5076043;28;20075;-56
2022/01/12 08:12:33;;;;;;;7.65;5.45;;;2.30;99.90;;;;;;5078767;28;20135;-58
2022/01/12 08:15:00;;;;;;;5.75;4.65;;;2.30;99.90;;;;;;5082180;28;20179;-55
2022/01/12 08:17:27;;;;;;;7.28;4.72;;;2.30;99.90;;;;;;5078838;28;20047;-59
2022/01/12 08:19:55;;;;;;;5.97;4.38;;;2.30;99.90;;;;;;5080978;28;20135;-57
2022/01/12 08:22:22;;;;;;;6.43;4.95;;;2.30;99.90;;;;;;5081694;28;20156;-57
2022/01/12 08:24:49;;;;;;;7.03;5.18;;;2.30;99.90;;;;;;5081930;28;20408;-56
2022/01/12 08:27:15;;;;;;;6.72;4.82;;;2.30;99.90;;;;;;5081827;28;20164;-56
2022/01/12 08:29:42;;;;;;;7.72;4.97;;;2.30;99.90;;;;;;5080605;28;20054;-56
2022/01/12 08:32:10;;;;;;;7.05;4.57;;;2.40;99.90;;;;;;5081084;28;20044;-58
2022/01/12 08:34:37;;;;;;;6.18;4.25;;;2.40;99.90;;;;;;5081127;28;20131;-56
2022/01/12 08:37:04;;;;;;;6.35;4.65;;;2.40;99.90;;;;;;5081707;28;20139;-56
2022/01/12 08:39:31;;;;;;;6.60;4.78;;;2.40;99.90;;;;;;5079514;28;20119;-55
2022/01/12 08:41:57;;;;;;;6.15;5.28;;;2.40;99.90;;;;;;5079901;28;20144;-54
2022/01/12 08:44:37;;;;;;;8.43;5.22;;;2.40;99.90;;;;;;5080954;28;20337;-56
2022/01/12 08:47:05;;;;;;;6.30;4.25;;;2.40;99.90;;;;;;5080957;28;20056;-56
2022/01/12 08:49:32;;;;;;;7.15;5.25;;;2.40;99.90;;;;;;5081626;28;20089;-54
2022/01/12 08:51:58;;;;;;;8.23;5.90;;;2.50;99.90;;;;;;5081025;28;20597;-56
2022/01/12 08:54:25;;;;;;;7.63;5.10;;;2.50;99.90;;;;;;5081542;28;20561;-56
2022/01/12 08:56:52;;;;;;;10.13;5.28;;;2.50;99.90;;;;;;5081143;28;20246;-57
2022/01/12 08:59:19;;;;;;;8.85;5.25;;;2.50;99.90;;;;;;5081323;28;20131;-52
2022/01/12 09:01:45;;;;;;;9.27;6.30;;;2.60;99.90;;;;;;5080653;28;20059;-55
2022/01/12 09:04:12;;;;;;;7.25;5.25;;;2.60;99.90;;;;;;5079618;28;20783;-58
2022/01/12 09:06:39;;;;;;;8.65;5.82;;;2.70;99.90;;;;;;5080777;28;20142;-59
2022/01/12 09:09:06;;;;;;;8.00;5.40;;;2.70;99.90;;;;;;5080717;28;20213;-57
2022/01/12 09:11:32;;;;;;;9.95;6.15;;;2.70;99.90;;;;;;5081159;28;20087;-56
2022/01/12 09:14:00;;;;;;;11.32;6.28;;;2.70;99.90;;;;;;5081199;28;20143;-53
2022/01/12 09:16:27;;;;;;;8.27;5.68;;;2.70;99.90;;;;;;5079663;28;20159;-56
2022/01/12 09:18:54;;;;;;;9.43;5.85;;;2.70;99.90;;;;;;5081283;28;20211;-57
2022/01/12 09:21:20;;;;;;;8.90;5.85;;;2.70;99.90;;;;;;5080499;28;20135;-54
2022/01/12 09:23:49;;;;;;;8.38;6.05;;;2.70;99.90;;;;;;5079865;28;20131;-54
2022/01/12 09:26:15;;;;;;;8.73;6.07;;;2.70;99.90;;;;;;5079026;28;20582;-59
2022/01/12 09:28:42;;;;;;;7.88;6.22;;;2.80;99.90;;;;;;5080700;28;20087;-54
2022/01/12 09:31:09;;;;;;;9.90;6.32;;;2.80;99.90;;;;;;5078542;28;20052;-54
2022/01/12 09:33:36;;;;;;;10.05;7.10;;;2.80;99.90;;;;;;5078420;28;20139;-57
2022/01/12 09:36:03;;;;;;;8.35;7.00;;;2.90;99.90;;;;;;5079509;28;20132;-55
2022/01/12 09:38:30;;;;;;;8.40;6.07;;;2.90;99.90;;;;;;5078881;28;20177;-55
2022/01/12 09:40:57;;;;;;;8.35;6.30;;;2.90;99.90;;;;;;5079185;28;20643;-56
2022/01/12 09:43:33;;;;;;;9.13;6.10;;;2.90;99.90;;;;;;5079494;28;20501;-54
2022/01/12 09:46:00;;;;;;;8.88;5.85;;;2.90;99.90;;;;;;5078012;28;20048;-55
2022/01/12 09:48:33;;;;;;;7.85;5.78;;;3.00;99.90;;;;;;5078992;28;20131;-56
2022/01/12 09:51:04;;;;;;;7.22;5.45;;;3.00;99.90;;;;;;5079375;28;20410;-54
2022/01/12 09:53:33;;;;;;;10.52;6.60;;;3.00;99.90;;;;;;5078314;28;20052;-55
2022/01/12 09:56:00;;;;;;;8.10;6.18;;;3.00;99.90;;;;;;5077985;28;20127;-57
2022/01/12 09:58:32;;;;;;;9.70;5.95;;;3.00;99.90;;;;;;5076896;28;20135;-53
2022/01/12 10:00:59;;;;;;;8.18;5.88;;;3.00;99.90;;;;;;5076986;28;20139;-54
2022/01/12 10:03:30;;;;;;;9.25;7.00;;;3.00;99.90;;;;;;5077895;28;20585;-55
2022/01/12 10:05:57;;;;;;;6.95;5.40;;;3.10;99.90;;;;;;5077786;28;20135;-55
2022/01/12 10:08:23;;;;;;;9.07;5.78;;;3.10;99.90;;;;;;5075934;28;20439;-56
2022/01/12 10:11:07;;;;;;;10.18;6.22;;;3.20;99.90;;;;;;5078695;28;20551;-56
2022/01/12 10:13:36;;;;;;;8.27;6.18;;;3.20;99.90;;;;;;5078004;28;20179;-55
2022/01/12 10:16:16;;;;;;;8.25;6.80;;;3.20;99.90;;;;;;5074933;28;20083;-56
2022/01/12 10:18:49;;;;;;;7.60;6.20;;;3.30;99.90;;;;;;5078203;28;20058;-57
2022/01/12 10:21:35;;;;;;;;;;;3.30;99.90;;;;;;5077876;28;20439;-55
2022/01/12 10:24:03;;;;;;;6.43;5.60;;;3.30;99.90;;;;;;5075867;28;20002;-53
2022/01/12 10:26:32;;;;;;;8.35;5.75;;;3.30;99.90;;;;;;5077761;28;20143;-54
2022/01/12 10:29:09;;;;;;;8.18;6.50;;;3.40;99.90;;;;;;5077903;28;20169;-55
2022/01/12 10:31:43;;;;;;;7.28;5.57;;;3.40;99.90;;;;;;5077672;28;20151;-55
2022/01/12 10:34:16;;;;;;;9.30;6.07;;;3.40;99.90;;;;;;5077908;28;20093;-55
2022/01/12 10:36:43;;;;;;;9.70;6.80;;;3.50;99.90;;;;;;5074873;28;20084;-55
2022/01/12 10:39:12;;;;;;;9.40;6.78;;;3.50;99.90;;;;;;5078115;28;20101;-56
2022/01/12 10:42:00;;;;;;;9.70;7.18;;;3.50;99.90;;;;;;5077909;28;20139;-55
2022/01/12 10:44:29;;;;;;;10.15;6.72;;;3.60;99.90;;;;;;5078080;28;20136;-57
2022/01/12 10:47:22;;;;;;;8.25;6.43;;;3.70;99.90;;;;;;5076711;28;20091;-57
2022/01/12 10:49:55;;;;;;;7.63;6.45;;;3.70;99.90;;;;;;5074914;28;20656;-57
2022/01/12 10:52:23;;;;;;;12.05;6.65;;;3.70;99.90;;;;;;5076150;28;20056;-58
2022/01/12 10:54:56;;;;;;;9.35;7.18;;;3.80;99.90;;;;;;5076109;28;20110;-57
2022/01/12 10:57:30;;;;;;;8.02;6.15;;;3.90;99.90;;;;;;5077083;28;20125;-57
2022/01/12 11:00:08;;;;;;;8.20;7.03;;;3.90;99.90;;;;;;5075086;28;20159;-57
2022/01/12 11:02:35;;;;;;;10.30;7.35;;;4.00;99.90;;;;;;5076322;28;20087;-56
2022/01/12 11:05:03;;;;;;;10.35;7.28;;;4.00;99.90;;;;;;5078230;28;20063;-52
2022/01/12 11:07:32;;;;;;;8.60;6.53;;;4.10;99.90;;;;;;5077965;28;20139;-55
2022/01/12 11:10:01;;;;;;;9.73;6.85;;;4.10;99.90;;;;;;5078493;28;20097;-55
2022/01/12 11:12:28;;;;;;;10.45;7.25;;;4.20;99.90;;;;;;5076310;28;20062;-54
2022/01/12 11:14:55;;;;;;;10.48;7.10;;;4.30;99.90;;;;;;5077731;28;20055;-56
2022/01/12 11:17:22;;;;;;;12.02;7.30;;;4.40;99.90;;;;;;5077213;28;20083;-55
2022/01/12 11:20:19;;;;;;;12.20;9.00;;;4.40;99.90;;;;;;5078073;28;20052;-54
2022/01/12 11:23:08;;;;;;;10.73;8.13;;;4.50;99.90;;;;;;5077465;28;20135;-53
2022/01/12 11:25:38;;;;;;;12.18;7.85;;;4.60;99.90;;;;;;5076949;28;20661;-55
2022/01/12 11:28:27;;;;;;;11.43;7.68;;;4.60;99.90;;;;;;5076552;28;20128;-56
2022/01/12 11:30:56;;;;;;;8.52;7.50;;;4.70;99.90;;;;;;5076969;28;20555;-55
2022/01/12 11:33:44;;;;;;;10.52;7.72;;;4.80;99.90;;;;;;5077834;28;20510;-56
2022/01/12 11:36:37;;;;;;;11.38;6.80;;;5.00;99.90;;;;;;5077513;28;20570;-55
2022/01/12 11:39:05;;;;;;;12.10;7.05;;;5.10;99.90;;;;;;5078085;28;20083;-53
2022/01/12 11:41:36;;;;;;;13.55;8.02;;;5.20;99.90;;;;;;5077142;28;20147;-54
2022/01/12 11:44:08;;;;;;;12.80;8.70;;;5.30;99.90;;;;;;5076248;28;20516;-53
2022/01/12 11:46:48;;;;;;;13.60;8.50;;;5.40;99.90;;;;;;5077500;28;20598;-55
2022/01/12 11:49:30;;;;;;;9.95;7.57;;;5.60;99.90;;;;;;5081927;28;20051;-55
2022/01/12 11:52:04;;;;;;;14.00;9.43;;;5.70;99.90;;;;;;5079617;28;20762;-55
2022/01/12 11:54:36;;;;;;;12.07;7.68;;;5.80;99.90;;;;;;5081847;28;20068;-53
2022/01/12 11:57:05;;;;;;;12.55;8.02;;;5.90;99.90;;;;;;5081918;28;20131;-56
2022/01/12 11:59:55;;;;;;;12.13;7.50;;;6.00;99.90;;;;;;5081410;28;20155;-55
2022/01/12 12:02:36;;;;;;;11.45;7.82;;;6.10;99.90;;;;;;5080534;28;20181;-55
2022/01/12 12:05:11;;;;;;;12.98;8.25;;;6.30;99.90;;;;;;5081944;28;20368;-56
2022/01/12 12:07:48;;;;;;;11.82;8.60;;;6.40;99.90;;;;;;5080895;28;20134;-56
2022/01/12 12:10:21;;;;;;;9.02;7.30;;;6.50;99.90;;;;;;5081623;28;20144;-55
2022/01/12 12:12:50;;;;;;;12.07;8.35;;;6.60;99.90;;;;;;5080838;28;20079;-54
2022/01/12 12:15:17;;;;;;;10.43;7.18;;;6.60;99.90;;;;;;5081078;28;20458;-55
2022/01/12 12:17:44;;;;;;;10.13;7.30;;;6.70;99.90;;;;;;5079718;28;20755;-55
2022/01/12 12:20:15;;;;;;;11.27;7.25;;;6.90;99.90;;;;;;5081586;28;20491;-54
2022/01/12 12:22:44;;;;;;;9.48;7.07;;;7.10;99.90;;;;;;5079212;28;20150;-55
2022/01/12 12:25:12;;;;;;;11.82;6.88;;;7.30;99.90;;;;;;5081357;28;20125;-55
2022/01/12 12:27:41;;;;;;;10.63;6.65;;;7.50;99.90;;;;;;5080773;28;20090;-56
2022/01/12 12:30:14;;;;;;;9.50;6.97;;;7.70;99.90;;;;;;5080864;28;20055;-56
2022/01/12 12:32:42;;;;;;;8.68;5.53;;;7.90;99.90;;;;;;5079887;28;20080;-56
2022/01/12 12:35:10;;;;;;;7.47;5.25;;;8.00;99.90;;;;;;5081228;28;20497;-55
2022/01/12 12:37:39;;;;;;;8.18;5.85;;;8.20;99.90;;;;;;5080908;28;20428;-55
2022/01/12 12:40:15;;;;;;;8.80;5.75;;;8.40;99.90;;;;;;5080589;28;20139;-56
2022/01/12 12:42:43;;;;;;;5.80;4.82;;;8.50;99.90;;;;;;5080490;28;20181;-56
2022/01/12 12:45:10;;;;;;;8.63;5.95;;;8.70;99.90;;;;;;5080537;28;20091;-56
2022/01/12 12:47:37;;;;;;;6.95;5.22;;;8.80;99.90;;;;;;5079169;28;20145;-56
2022/01/12 12:50:08;;;;;;;8.10;5.97;;;9.00;99.90;;;;;;5080978;28;20094;-56
2022/01/12 12:52:36;;;;;;;10.77;6.75;;;9.20;99.90;;;;;;5078408;28;20052;-54
2022/01/12 12:55:10;;;;;;;8.50;5.57;;;9.50;99.90;;;;;;5080929;28;20056;-56
2022/01/12 12:57:45;;;;;;;9.40;5.90;;;9.70;99.90;;;;;;5078936;28;20079;-53
2022/01/12 13:00:16;;;;;;;7.60;5.80;;;9.70;99.90;;;;;;5079829;28;20563;-57
2022/01/12 13:02:44;;;;;;;8.02;6.13;;;9.80;99.90;;;;;;5079417;28;20087;-56
2022/01/12 13:05:14;;;;;;;9.82;6.45;;;9.90;99.90;;;;;;5080308;28;20154;-57
2022/01/12 13:07:43;;;;;;;9.23;6.13;;;10.00;99.90;;;;;;5078783;28;20091;-55
2022/01/12 13:10:15;;;;;;;7.70;5.80;;;10.00;99.90;;;;;;5080790;28;20044;-56
2022/01/12 13:12:43;;;;;;;10.10;6.03;;;10.10;99.90;;;;;;5079907;28;20059;-54
2022/01/12 13:15:13;;;;;;;11.43;6.28;;;10.20;99.90;;;;;;5079952;28;20471;-56
2022/01/12 13:17:41;;;;;;;9.63;6.57;;;10.50;99.90;;;;;;5077019;28;20127;-54
2022/01/12 13:22:46;;;;;;;8.55;5.50;;;10.60;99.90;;;;;;5079766;28;20160;-57
2022/01/12 13:25:15;;;;;;;9.25;5.22;;;10.60;99.90;;;;;;5080506;28;20306;-57
2022/01/12 13:27:43;;;;;;;6.90;5.15;;;10.70;99.90;;;;;;5079747;28;20111;-56
2022/01/12 13:30:22;;;;;;;7.72;4.90;;;10.80;99.90;;;;;;5079437;28;20585;-56
2022/01/12 13:32:52;;;;;;;6.93;4.82;;;11.00;99.90;;;;;;5078780;28;20567;-57
2022/01/12 13:35:28;;;;;;;7.55;5.38;;;11.00;99.90;;;;;;5078377;28;20601;-56
2022/01/12 13:37:57;;;;;;;6.60;4.47;;;11.00;99.90;;;;;;5078229;28;20087;-56
2022/01/12 13:40:41;;;;;;;5.78;4.38;;;11.00;99.90;;;;;;5074511;28;20087;-56
2022/01/12 13:43:08;;;;;;;8.13;4.35;;;11.10;99.90;;;;;;5079044;28;20537;-57
2022/01/12 13:45:42;;;;;;;6.18;4.13;;;11.20;99.90;;;;;;5077013;28;20491;-55
2022/01/12 13:48:15;;;;;;;6.20;4.35;;;11.30;99.90;;;;;;5077911;28;20044;-55
2022/01/12 13:50:45;;;;;;;6.70;4.25;;;11.40;99.90;;;;;;5078178;28;20696;-56
2022/01/12 13:53:12;;;;;;;6.90;3.92;;;11.50;99.90;;;;;;5077839;28;20642;-56
2022/01/12 13:55:52;;;;;;;7.72;4.60;;;11.40;99.90;;;;;;5078282;28;20054;-56
2022/01/12 13:58:20;;;;;;;6.88;3.85;;;11.50;99.90;;;;;;5079391;28;20048;-57
2022/01/12 14:00:47;;;;;;;7.32;4.38;;;11.50;99.90;;;;;;5078125;28;20135;-56
2022/01/12 14:03:19;;;;;;;7.65;4.35;;;11.60;99.90;;;;;;5078490;28;20530;-55
2022/01/12 14:05:46;;;;;;;6.57;3.78;;;11.80;99.90;;;;;;5078238;28;20131;-58
2022/01/12 14:08:15;;;;;;;8.15;3.97;;;11.90;99.90;;;;;;5079307;28;20060;-57
2022/01/12 14:10:44;;;;;;;6.63;3.83;;;11.90;99.90;;;;;;5078516;28;20127;-58
2022/01/12 14:13:11;;;;;;;6.68;3.70;;;11.90;99.90;;;;;;5077351;28;20404;-57
2022/01/12 14:15:38;;;;;;;5.55;3.25;;;12.00;99.90;;;;;;5076533;28;20563;-51
2022/01/12 14:18:06;;;;;;;5.15;3.17;;;12.00;99.90;;;;;;5078284;28;20052;-56
2022/01/12 14:20:36;;;;;;;6.05;3.63;;;12.00;99.90;;;;;;5079178;28;20130;-54
2022/01/12 14:23:08;;;;;;;4.97;3.17;;;12.00;99.90;;;;;;5077405;28;20147;-57
2022/01/12 14:25:49;;;;;;;5.95;3.72;;;12.00;99.90;;;;;;5078739;28;20123;-56
2022/01/12 14:28:30;;;;;;;5.85;3.40;;;11.90;99.90;;;;;;5063355;28;20859;-54
2022/01/12 14:30:57;;;;;;;6.95;3.08;;;11.70;99.90;;;;;;5075955;28;20131;-56